createdAt,value
2022-10-23T00:00:00.130Z,10.83
2022-10-23T00:00:32.174Z,10.79
2022-10-23T00:01:13.057Z,10.84
2022-10-23T00:01:46.002Z,10.80
2022-10-23T00:02:17.953Z,10.81
2022-10-23T00:02:54.227Z,10.84
2022-10-23T00:03:26.417Z,10.79
2022-10-23T00:04:01.251Z,10.79
2022-10-23T00:04:33.205Z,10.69
2022-10-23T00:05:05.354Z,10.73
2022-10-23T00:05:41.293Z,10.75
2022-10-23T00:06:14.205Z,10.66
2022-10-23T00:06:46.787Z,10.64
2022-10-23T00:07:19.147Z,10.64
2022-10-23T00:07:55.037Z,10.66
2022-10-23T00:08:26.877Z,10.67
2022-10-23T00:08:58.868Z,10.68
2022-10-23T00:09:30.867Z,10.70
2022-10-23T00:10:02.958Z,10.65
2022-10-23T00:10:35.496Z,10.64
2022-10-23T00:11:09.724Z,10.62
2022-10-23T00:11:44.555Z,10.62
2022-10-23T00:12:16.401Z,10.57
2022-10-23T00:12:49.072Z,10.58
2022-10-23T00:13:20.945Z,10.58
2022-10-23T00:13:55.891Z,10.61
2022-10-23T00:14:27.876Z,10.59
2022-10-23T00:14:59.805Z,10.60
2022-10-23T00:15:31.678Z,10.65
2022-10-23T00:16:03.866Z,10.65
2022-10-23T00:16:36.441Z,10.67
2022-10-23T00:17:10.598Z,10.69
2022-10-23T00:17:42.703Z,10.66
2022-10-23T00:18:14.648Z,10.66
2022-10-23T00:18:46.580Z,10.65
2022-10-23T00:19:18.571Z,10.66
2022-10-23T00:19:50.391Z,10.65
2022-10-23T00:20:22.219Z,10.65
2022-10-23T00:20:55.049Z,10.65
2022-10-23T00:21:27.356Z,10.64
2022-10-23T00:21:59.193Z,10.55
2022-10-23T00:22:32.388Z,10.54
2022-10-23T00:23:04.326Z,10.55
2022-10-23T00:23:36.390Z,10.52
2022-10-23T00:24:41.539Z,10.45
2022-10-23T00:25:13.323Z,10.40
2022-10-23T00:25:45.139Z,10.42
2022-10-23T00:26:17.447Z,10.36
2022-10-23T00:26:50.949Z,10.39
2022-10-23T00:27:23.477Z,10.41
2022-10-23T00:27:55.312Z,10.36
2022-10-23T00:28:27.117Z,10.30
2022-10-23T00:28:59.390Z,10.32
2022-10-23T00:29:31.688Z,10.27
2022-10-23T00:30:05.512Z,10.32
2022-10-23T00:30:37.473Z,10.25
2022-10-23T00:31:09.597Z,10.19
2022-10-23T00:31:41.473Z,10.21
2022-10-23T00:32:13.358Z,10.28
2022-10-23T00:32:45.609Z,10.33
2022-10-23T00:33:17.425Z,10.30
2022-10-23T00:33:50.272Z,10.30
2022-10-23T00:34:22.151Z,10.30
2022-10-23T00:34:55.060Z,10.32
2022-10-23T00:35:26.936Z,10.32
2022-10-23T00:35:59.109Z,10.34
2022-10-23T00:36:31.447Z,10.32
2022-10-23T00:37:03.357Z,10.29
2022-10-23T00:37:35.199Z,10.25
2022-10-23T00:38:09.136Z,10.24
2022-10-23T00:38:41.186Z,10.19
2022-10-23T00:39:13.069Z,10.21
2022-10-23T00:39:44.886Z,10.22
2022-10-23T00:40:16.997Z,10.25
2022-10-23T00:41:25.618Z,10.29
2022-10-23T00:41:57.536Z,10.28
2022-10-23T00:42:29.357Z,10.24
2022-10-23T00:43:02.215Z,10.27
2022-10-23T00:43:36.088Z,10.22
2022-10-23T00:44:09.977Z,10.17
2022-10-23T00:44:41.846Z,10.16
2022-10-23T00:45:19.837Z,10.17
2022-10-23T00:45:52.520Z,10.21
2022-10-23T00:46:24.746Z,10.19
2022-10-23T00:46:58.507Z,10.20
2022-10-23T00:47:30.377Z,10.17
2022-10-23T00:48:03.782Z,10.16
2022-10-23T00:48:35.610Z,10.12
2022-10-23T00:49:09.215Z,10.14
2022-10-23T00:49:42.763Z,10.15
2022-10-23T00:50:16.103Z,10.13
2022-10-23T00:50:49.579Z,10.16
2022-10-23T00:51:21.837Z,10.11
2022-10-23T00:51:59.562Z,10.05
2022-10-23T00:52:32.400Z,10.03
2022-10-23T00:53:05.300Z,10.03
2022-10-23T00:53:38.274Z,10.04
2022-10-23T00:54:23.637Z,10.07
2022-10-23T00:54:57.188Z,10.04
2022-10-23T00:55:29.663Z,10.03
2022-10-23T00:56:03.176Z,10.01
2022-10-23T00:56:39.466Z,10.05
2022-10-23T00:57:15.731Z,10.00
2022-10-23T00:57:49.907Z,9.96
2022-10-23T00:58:22.338Z,9.90
2022-10-23T00:58:54.237Z,9.90
2022-10-23T00:59:26.860Z,9.85
2022-10-23T00:59:58.898Z,9.82
2022-10-23T01:00:40.945Z,9.83
2022-10-23T01:01:19.405Z,9.85
2022-10-23T01:01:52.484Z,9.77
2022-10-23T01:02:24.720Z,9.73
2022-10-23T01:02:57.754Z,9.76
2022-10-23T01:03:29.783Z,9.79
2022-10-23T01:04:05.850Z,9.81
2022-10-23T01:04:38.253Z,9.83
2022-10-23T01:05:11.103Z,9.81
2022-10-23T01:06:10.786Z,9.78
2022-10-23T01:06:51.202Z,9.77
2022-10-23T01:07:35.012Z,9.76
2022-10-23T01:08:13.803Z,9.71
2022-10-23T01:09:19.168Z,9.61
2022-10-23T01:10:02.912Z,9.64
2022-10-23T01:10:36.172Z,9.67
2022-10-23T01:11:14.960Z,9.73
2022-10-23T01:12:00.795Z,9.73
2022-10-23T01:12:47.052Z,9.66
2022-10-23T01:13:39.874Z,9.54
2022-10-23T01:14:23.622Z,9.59
2022-10-23T01:15:17.110Z,9.56
2022-10-23T01:15:59.007Z,9.58
2022-10-23T01:16:46.347Z,9.56
2022-10-23T01:17:44.550Z,9.64
2022-10-23T01:18:25.629Z,9.62
2022-10-23T01:19:07.075Z,9.64
2022-10-23T01:19:48.184Z,9.63
2022-10-23T01:20:46.049Z,9.67
2022-10-23T01:21:26.868Z,9.64
2022-10-23T01:22:36.097Z,9.65
2022-10-23T01:23:11.175Z,9.61
2022-10-23T01:24:00.324Z,9.68
2022-10-23T01:24:58.182Z,9.74
2022-10-23T01:25:52.886Z,9.76
2022-10-23T01:26:34.814Z,9.73
2022-10-23T01:27:20.664Z,9.76
2022-10-23T01:27:58.993Z,9.73
2022-10-23T01:28:36.312Z,9.73
2022-10-23T01:29:37.124Z,9.76
2022-10-23T01:30:13.275Z,9.64
2022-10-23T01:30:48.958Z,9.66
2022-10-23T01:31:51.289Z,9.63
2022-10-23T01:32:42.102Z,9.69
2022-10-23T01:33:16.364Z,9.67
2022-10-23T01:33:59.921Z,9.63
2022-10-23T01:34:49.422Z,9.62
2022-10-23T01:35:28.214Z,9.61
2022-10-23T01:36:11.982Z,9.66
2022-10-23T01:36:48.706Z,9.63
2022-10-23T01:37:39.610Z,9.60
2022-10-23T01:38:28.994Z,9.63
2022-10-23T01:39:10.280Z,9.64
2022-10-23T01:39:48.082Z,9.67
2022-10-23T01:40:31.263Z,9.71
2022-10-23T01:41:20.557Z,9.66
2022-10-23T01:42:00.973Z,9.67
2022-10-23T01:42:39.689Z,9.62
2022-10-23T01:43:18.552Z,9.61
2022-10-23T01:44:05.606Z,9.61
2022-10-23T01:44:46.543Z,9.61
2022-10-23T01:45:49.034Z,9.62
2022-10-23T01:46:25.972Z,9.59
2022-10-23T01:46:58.318Z,9.53
2022-10-23T01:47:36.198Z,9.49
2022-10-23T01:48:18.212Z,9.53
2022-10-23T01:48:54.326Z,9.50
2022-10-23T01:49:34.814Z,9.48
2022-10-23T01:50:09.042Z,9.45
2022-10-23T01:50:50.144Z,9.47
2022-10-23T01:51:27.392Z,9.49
2022-10-23T01:52:04.008Z,9.49
2022-10-23T01:52:37.549Z,9.52
2022-10-23T01:53:10.966Z,9.49
2022-10-23T01:53:46.849Z,9.50
2022-10-23T01:54:25.766Z,9.51
2022-10-23T01:55:00.732Z,9.50
2022-10-23T01:56:27.849Z,9.48
2022-10-23T01:57:00.627Z,9.42
2022-10-23T01:57:37.373Z,9.46
2022-10-23T01:58:11.155Z,9.38
2022-10-23T01:58:49.425Z,9.37
2022-10-23T01:59:25.654Z,9.38
2022-10-23T02:00:03.760Z,9.43
2022-10-23T02:00:40.560Z,9.37
2022-10-23T02:01:15.030Z,9.35
2022-10-23T02:01:57.878Z,9.33
2022-10-23T02:02:32.657Z,9.33
2022-10-23T02:03:07.754Z,9.36
2022-10-23T02:03:42.992Z,9.35
2022-10-23T02:04:23.671Z,9.35
2022-10-23T02:05:03.508Z,9.34
2022-10-23T02:05:35.960Z,9.36
2022-10-23T02:06:09.595Z,9.39
2022-10-23T02:06:42.062Z,9.41
2022-10-23T02:07:14.035Z,9.38
2022-10-23T02:07:46.665Z,9.33
2022-10-23T02:08:18.519Z,9.38
2022-10-23T02:08:50.940Z,9.40
2022-10-23T02:09:22.947Z,9.31
2022-10-23T02:09:54.864Z,9.32
2022-10-23T02:10:34.735Z,9.34
2022-10-23T02:11:11.392Z,9.35
2022-10-23T02:11:54.294Z,9.41
2022-10-23T02:12:52.043Z,9.40
2022-10-23T02:13:28.509Z,9.43
2022-10-23T02:14:07.938Z,9.45
2022-10-23T02:14:48.373Z,9.48
2022-10-23T02:15:20.217Z,9.49
2022-10-23T02:16:03.711Z,9.50
2022-10-23T02:16:46.045Z,9.50
2022-10-23T02:17:44.484Z,9.53
2022-10-23T02:18:51.372Z,9.54
2022-10-23T02:19:44.004Z,9.47
2022-10-23T02:20:21.893Z,9.47
2022-10-23T02:20:57.592Z,9.45
2022-10-23T02:21:33.173Z,9.40
2022-10-23T02:22:07.892Z,9.42
2022-10-23T02:22:48.822Z,9.43
2022-10-23T02:23:33.180Z,9.46
2022-10-23T02:24:13.745Z,9.48
2022-10-23T02:25:09.243Z,9.53
2022-10-23T02:26:08.875Z,9.49
2022-10-23T02:26:46.894Z,9.50
2022-10-23T02:27:30.460Z,9.53
2022-10-23T02:28:08.552Z,9.50
2022-10-23T02:28:53.483Z,9.46
2022-10-23T02:29:30.163Z,9.43
2022-10-23T02:30:10.962Z,9.42
2022-10-23T02:30:47.661Z,9.42
2022-10-23T02:31:22.169Z,9.44
2022-10-23T02:31:54.065Z,9.42
2022-10-23T02:32:28.837Z,9.46
2022-10-23T02:33:02.560Z,9.45
2022-10-23T02:33:35.915Z,9.42
2022-10-23T02:34:07.953Z,9.41
2022-10-23T02:34:39.900Z,9.38
2022-10-23T02:35:16.485Z,9.35
2022-10-23T02:35:49.208Z,9.39
2022-10-23T02:36:26.796Z,9.43
2022-10-23T02:36:59.069Z,9.41
2022-10-23T02:37:31.015Z,9.38
2022-10-23T02:38:02.944Z,9.36
2022-10-23T02:38:43.142Z,9.31
2022-10-23T02:39:14.996Z,9.33
2022-10-23T02:39:47.657Z,9.37
2022-10-23T02:40:20.290Z,9.40
2022-10-23T02:40:53.009Z,9.38
2022-10-23T02:41:44.224Z,9.41
2022-10-23T02:42:26.346Z,9.39
2022-10-23T02:43:14.798Z,9.43
2022-10-23T02:44:12.259Z,9.45
2022-10-23T02:45:02.957Z,9.44
2022-10-23T02:45:51.417Z,9.43
2022-10-23T02:46:49.538Z,9.45
2022-10-23T02:47:58.754Z,9.37
2022-10-23T02:48:41.738Z,9.37
2022-10-23T02:49:31.152Z,9.33
2022-10-23T02:50:33.763Z,9.35
2022-10-23T02:51:32.396Z,9.41
2022-10-23T02:52:04.578Z,9.40
2022-10-23T02:52:59.210Z,9.42
2022-10-23T02:53:46.390Z,9.37
2022-10-23T02:54:36.429Z,9.32
2022-10-23T02:55:21.493Z,9.25
2022-10-23T02:56:10.195Z,9.29
2022-10-23T02:56:50.676Z,9.23
2022-10-23T02:57:41.893Z,9.23
2022-10-23T02:58:35.975Z,9.29
2022-10-23T02:59:43.015Z,9.33
2022-10-23T03:00:19.111Z,9.37
2022-10-23T03:00:57.175Z,9.36
2022-10-23T03:01:46.359Z,9.33
2022-10-23T03:02:24.565Z,9.27
2022-10-23T03:03:00.877Z,9.31
2022-10-23T03:03:45.626Z,9.25
2022-10-23T03:04:20.711Z,9.24
2022-10-23T03:04:54.820Z,9.28
2022-10-23T03:05:36.912Z,9.30
2022-10-23T03:06:09.004Z,9.23
2022-10-23T03:06:41.413Z,9.28
2022-10-23T03:07:20.700Z,9.29
2022-10-23T03:07:52.903Z,9.24
2022-10-23T03:08:25.131Z,9.21
2022-10-23T03:09:04.480Z,9.23
2022-10-23T03:09:36.958Z,9.21
2022-10-23T03:10:09.726Z,9.18
2022-10-23T03:10:42.767Z,9.20
2022-10-23T03:11:14.740Z,9.18
2022-10-23T03:11:46.814Z,9.24
2022-10-23T03:12:18.783Z,9.28
2022-10-23T03:12:50.943Z,9.21
2022-10-23T03:13:23.702Z,9.21
2022-10-23T03:13:55.985Z,9.20
2022-10-23T03:14:27.796Z,9.22
2022-10-23T03:14:59.611Z,9.22
2022-10-23T03:15:31.533Z,9.21
2022-10-23T03:16:03.626Z,9.24
2022-10-23T03:16:35.555Z,9.28
2022-10-23T03:17:07.531Z,9.29
2022-10-23T03:17:39.673Z,9.32
2022-10-23T03:18:11.840Z,9.29
2022-10-23T03:18:44.646Z,9.24
2022-10-23T03:19:16.593Z,9.21
2022-10-23T03:19:48.407Z,9.27
2022-10-23T03:20:20.352Z,9.31
2022-10-23T03:20:52.237Z,9.23
2022-10-23T03:21:27.233Z,9.24
2022-10-23T03:21:59.205Z,9.29
2022-10-23T03:22:31.093Z,9.24
2022-10-23T03:23:03.003Z,9.21
2022-10-23T03:23:35.381Z,9.23
2022-10-23T03:24:08.144Z,9.26
2022-10-23T03:24:47.092Z,9.28
2022-10-23T03:25:18.945Z,9.32
2022-10-23T03:25:51.834Z,9.29
2022-10-23T03:26:46.328Z,9.29
2022-10-23T03:27:18.221Z,9.30
2022-10-23T03:27:50.105Z,9.29
2022-10-23T03:28:22.750Z,9.29
2022-10-23T03:28:54.754Z,9.26
2022-10-23T03:29:28.450Z,9.22
2022-10-23T03:30:00.472Z,9.23
2022-10-23T03:30:34.528Z,9.25
2022-10-23T03:31:06.412Z,9.27
2022-10-23T03:31:38.364Z,9.28
2022-10-23T03:32:10.203Z,9.22
2022-10-23T03:32:42.307Z,9.23
2022-10-23T03:33:14.317Z,9.22
2022-10-23T03:33:46.117Z,9.18
2022-10-23T03:34:19.347Z,9.21
2022-10-23T03:34:51.312Z,9.16
2022-10-23T03:35:23.156Z,9.19
2022-10-23T03:35:55.538Z,9.19
2022-10-23T03:36:27.401Z,9.17
2022-10-23T03:36:59.176Z,9.18
2022-10-23T03:37:30.990Z,9.21
2022-10-23T03:38:02.908Z,9.20
2022-10-23T03:38:34.805Z,9.27
2022-10-23T03:39:08.218Z,9.29
2022-10-23T03:39:40.336Z,9.29
2022-10-23T03:40:12.161Z,9.34
2022-10-23T03:40:43.932Z,9.36
2022-10-23T03:41:17.702Z,9.40
2022-10-23T03:41:49.585Z,9.40
2022-10-23T03:42:22.318Z,9.37
2022-10-23T03:42:54.392Z,9.38
2022-10-23T03:43:26.199Z,9.37
2022-10-23T03:43:58.513Z,9.37
2022-10-23T03:44:34.180Z,9.35
2022-10-23T03:45:06.479Z,9.36
2022-10-23T03:45:39.615Z,9.37
2022-10-23T03:46:12.984Z,9.35
2022-10-23T03:46:45.103Z,9.33
2022-10-23T03:47:17.841Z,9.32
2022-10-23T03:47:51.623Z,9.37
2022-10-23T03:48:24.815Z,9.32
2022-10-23T03:48:58.964Z,9.35
2022-10-23T03:49:31.086Z,9.29
2022-10-23T03:50:09.860Z,9.30
2022-10-23T03:50:41.720Z,9.33
2022-10-23T03:51:13.584Z,9.34
2022-10-23T03:51:51.957Z,9.39
2022-10-23T03:52:25.972Z,9.41
2022-10-23T03:52:57.925Z,9.42
2022-10-23T03:53:29.772Z,9.44
2022-10-23T03:54:01.629Z,9.41
2022-10-23T03:54:34.532Z,9.42
2022-10-23T03:55:07.071Z,9.43
2022-10-23T03:55:38.887Z,9.45
2022-10-23T03:56:10.722Z,9.42
2022-10-23T03:56:42.594Z,9.43
2022-10-23T03:57:14.450Z,9.43
2022-10-23T03:57:46.408Z,9.40
2022-10-23T03:58:18.449Z,9.44
2022-10-23T03:58:51.050Z,9.42
2022-10-23T03:59:22.982Z,9.41
2022-10-23T03:59:54.785Z,9.36
2022-10-23T04:00:26.559Z,9.37
2022-10-23T04:00:58.591Z,9.41
2022-10-23T04:01:30.646Z,9.44
2022-10-23T04:02:02.653Z,9.49
2022-10-23T04:02:35.144Z,9.46
2022-10-23T04:03:08.385Z,9.32
2022-10-23T04:03:41.977Z,9.30
2022-10-23T04:04:14.197Z,9.34
2022-10-23T04:04:48.303Z,9.36
2022-10-23T04:05:20.200Z,9.41
2022-10-23T04:06:00.878Z,9.41
2022-10-23T04:06:32.742Z,9.41
2022-10-23T04:07:06.098Z,9.48
2022-10-23T04:07:38.245Z,9.47
2022-10-23T04:08:10.268Z,9.46
2022-10-23T04:08:44.309Z,9.40
2022-10-23T04:09:20.322Z,9.49
2022-10-23T04:09:52.138Z,9.50
2022-10-23T04:10:24.001Z,9.56
2022-10-23T04:10:56.124Z,9.64
2022-10-23T04:11:39.105Z,9.61
2022-10-23T04:12:11.040Z,9.63
2022-10-23T04:12:43.052Z,9.67
2022-10-23T04:13:14.978Z,9.63
2022-10-23T04:13:47.625Z,9.66
2022-10-23T04:14:19.537Z,9.66
2022-10-23T04:14:52.395Z,9.61
2022-10-23T04:15:24.166Z,9.66
2022-10-23T04:15:56.358Z,9.59
2022-10-23T04:16:28.798Z,9.55
2022-10-23T04:17:00.739Z,9.60
2022-10-23T04:17:33.293Z,9.57
2022-10-23T04:18:05.130Z,9.60
2022-10-23T04:18:37.213Z,9.62
2022-10-23T04:19:09.186Z,9.63
2022-10-23T04:19:41.037Z,9.56
2022-10-23T04:20:12.885Z,9.59
2022-10-23T04:20:47.615Z,9.58
2022-10-23T04:21:19.718Z,9.56
2022-10-23T04:21:51.485Z,9.49
2022-10-23T04:22:25.943Z,9.50
2022-10-23T04:22:59.785Z,9.56
2022-10-23T04:23:31.614Z,9.61
2022-10-23T04:24:04.502Z,9.50
2022-10-23T04:24:37.178Z,9.41
2022-10-23T04:25:09.731Z,9.51
2022-10-23T04:25:41.727Z,9.60
2022-10-23T04:26:13.987Z,9.64
2022-10-23T04:26:45.791Z,9.61
2022-10-23T04:27:17.642Z,9.66
2022-10-23T04:27:49.479Z,9.64
2022-10-23T04:28:22.074Z,9.66
2022-10-23T04:28:54.423Z,9.67
2022-10-23T04:29:26.252Z,9.59
2022-10-23T04:29:59.163Z,9.50
2022-10-23T04:30:31.605Z,9.48
2022-10-23T04:31:03.588Z,9.46
2022-10-23T04:31:35.475Z,9.49
2022-10-23T04:32:07.939Z,9.52
2022-10-23T04:32:39.707Z,9.55
2022-10-23T04:33:11.624Z,9.56
2022-10-23T04:33:43.555Z,9.60
2022-10-23T04:34:30.121Z,9.58
2022-10-23T04:35:02.183Z,9.61
2022-10-23T04:35:35.998Z,9.54
2022-10-23T04:36:08.412Z,9.56
2022-10-23T04:36:40.224Z,9.54
2022-10-23T04:37:14.727Z,9.54
2022-10-23T04:37:46.639Z,9.52
2022-10-23T04:38:18.503Z,9.54
2022-10-23T04:38:50.449Z,9.58
2022-10-23T04:39:22.252Z,9.59
2022-10-23T04:39:54.170Z,9.49
2022-10-23T04:40:26.062Z,9.50
2022-10-23T04:40:59.628Z,9.53
2022-10-23T04:41:32.346Z,9.53
2022-10-23T04:42:05.571Z,9.50
2022-10-23T04:42:38.301Z,9.58
2022-10-23T04:43:10.349Z,9.56
2022-10-23T04:43:44.657Z,9.60
2022-10-23T04:44:19.053Z,9.63
2022-10-23T04:44:51.159Z,9.59
2022-10-23T04:45:23.005Z,9.56
2022-10-23T04:45:54.880Z,9.57
2022-10-23T04:46:27.708Z,9.61
2022-10-23T04:46:59.619Z,9.65
2022-10-23T04:47:31.532Z,9.60
2022-10-23T04:48:04.992Z,9.67
2022-10-23T04:48:55.540Z,9.74
2022-10-23T04:49:27.324Z,9.69
2022-10-23T04:50:17.994Z,9.71
2022-10-23T04:51:08.423Z,9.70
2022-10-23T04:52:03.500Z,9.69
2022-10-23T04:52:44.827Z,9.60
2022-10-23T04:53:46.040Z,9.47
2022-10-23T04:54:47.091Z,9.47
2022-10-23T04:55:25.544Z,9.51
2022-10-23T04:56:17.617Z,9.53
2022-10-23T04:57:01.968Z,9.43
2022-10-23T04:57:43.724Z,9.50
2022-10-23T04:58:16.496Z,9.50
2022-10-23T04:58:49.361Z,9.52
2022-10-23T04:59:21.430Z,9.51
2022-10-23T04:59:53.561Z,9.52
2022-10-23T05:00:25.608Z,9.53
2022-10-23T05:01:00.124Z,9.49
2022-10-23T05:01:32.161Z,9.48
2022-10-23T05:02:04.963Z,9.50
2022-10-23T05:02:36.811Z,9.47
2022-10-23T05:03:09.176Z,9.48
2022-10-23T05:03:45.275Z,9.54
2022-10-23T05:04:18.026Z,9.54
2022-10-23T05:05:12.560Z,9.53
2022-10-23T05:06:05.746Z,9.54
2022-10-23T05:07:05.881Z,9.43
2022-10-23T05:07:56.293Z,9.36
2022-10-23T05:08:33.362Z,9.37
2022-10-23T05:09:23.954Z,9.33
2022-10-23T05:10:05.124Z,9.35
2022-10-23T05:10:44.607Z,9.33
2022-10-23T05:11:18.965Z,9.33
2022-10-23T05:11:53.544Z,9.29
2022-10-23T05:12:26.658Z,9.26
2022-10-23T05:12:58.817Z,9.30
2022-10-23T05:13:30.753Z,9.33
2022-10-23T05:14:02.574Z,9.31
2022-10-23T05:14:34.471Z,9.28
2022-10-23T05:15:06.900Z,9.28
2022-10-23T05:15:39.052Z,9.23
2022-10-23T05:16:21.425Z,9.22
2022-10-23T05:16:59.786Z,9.17
2022-10-23T05:17:42.301Z,9.23
2022-10-23T05:18:26.274Z,9.27
2022-10-23T05:18:59.985Z,9.22
2022-10-23T05:19:38.652Z,9.20
2022-10-23T05:20:16.268Z,9.17
2022-10-23T05:20:53.482Z,9.16
2022-10-23T05:21:29.614Z,9.17
2022-10-23T05:22:04.870Z,9.13
2022-10-23T05:22:54.894Z,9.13
2022-10-23T05:23:31.816Z,9.07
2022-10-23T05:24:06.699Z,9.08
2022-10-23T05:24:40.424Z,9.09
2022-10-23T05:25:13.317Z,9.04
2022-10-23T05:25:49.853Z,9.02
2022-10-23T05:26:23.207Z,9.03
2022-10-23T05:26:57.934Z,9.08
2022-10-23T05:27:29.998Z,9.08
2022-10-23T05:28:01.883Z,9.05
2022-10-23T05:28:33.807Z,9.07
2022-10-23T05:29:05.876Z,9.03
2022-10-23T05:29:38.624Z,9.07
2022-10-23T05:30:11.164Z,9.10
2022-10-23T05:30:43.503Z,9.09
2022-10-23T05:31:16.331Z,9.07
2022-10-23T05:32:01.452Z,9.09
2022-10-23T05:32:36.690Z,9.04
2022-10-23T05:33:10.227Z,9.00
2022-10-23T05:33:45.500Z,8.99
2022-10-23T05:34:20.531Z,9.05
2022-10-23T05:34:54.017Z,9.07
2022-10-23T05:35:26.013Z,9.04
2022-10-23T05:35:58.680Z,9.02
2022-10-23T05:36:31.755Z,9.02
2022-10-23T05:37:06.110Z,8.96
2022-10-23T05:37:45.232Z,8.98
2022-10-23T05:38:23.725Z,9.02
2022-10-23T05:38:56.613Z,9.01
2022-10-23T05:39:28.786Z,9.00
2022-10-23T05:40:00.595Z,9.00
2022-10-23T05:40:32.660Z,9.04
2022-10-23T05:41:10.238Z,9.05
2022-10-23T05:41:42.610Z,9.08
2022-10-23T05:42:14.582Z,9.07
2022-10-23T05:42:47.612Z,9.08
2022-10-23T05:43:22.479Z,9.09
2022-10-23T05:44:08.402Z,9.10
2022-10-23T05:45:06.860Z,9.08
2022-10-23T05:45:58.086Z,9.04
2022-10-23T05:46:51.382Z,8.97
2022-10-23T05:47:31.508Z,9.00
2022-10-23T05:48:33.909Z,9.05
2022-10-23T05:49:26.431Z,9.08
2022-10-23T05:50:18.375Z,9.03
2022-10-23T05:51:07.974Z,9.06
2022-10-23T05:52:02.700Z,8.95
2022-10-23T05:52:50.849Z,8.87
2022-10-23T05:53:49.838Z,8.98
2022-10-23T05:54:42.191Z,8.95
2022-10-23T05:55:46.377Z,8.98
2022-10-23T05:56:37.988Z,9.01
2022-10-23T05:57:54.117Z,9.01
2022-10-23T05:58:43.321Z,8.94
2022-10-23T05:59:23.418Z,8.98
2022-10-23T05:59:55.350Z,8.98
2022-10-23T06:00:45.611Z,9.02
2022-10-23T06:01:37.889Z,9.06
2022-10-23T06:02:12.171Z,9.05
2022-10-23T06:02:55.018Z,9.00
2022-10-23T06:03:43.983Z,9.04
2022-10-23T06:04:16.808Z,9.05
2022-10-23T06:05:14.732Z,9.06
2022-10-23T06:06:21.978Z,9.09
2022-10-23T06:06:55.154Z,9.09
2022-10-23T06:07:31.317Z,9.10
2022-10-23T06:08:08.356Z,9.11
2022-10-23T06:08:40.264Z,9.11
2022-10-23T06:09:12.212Z,9.09
2022-10-23T06:09:45.359Z,9.08
2022-10-23T06:10:18.303Z,9.13
2022-10-23T06:10:53.121Z,9.08
2022-10-23T06:11:25.047Z,9.04
2022-10-23T06:12:04.490Z,9.06
2022-10-23T06:12:37.431Z,9.14
2022-10-23T06:13:09.564Z,9.18
2022-10-23T06:13:46.226Z,9.13
2022-10-23T06:14:19.993Z,9.11
2022-10-23T06:14:55.296Z,9.15
2022-10-23T06:15:33.311Z,9.14
2022-10-23T06:16:19.229Z,9.15
2022-10-23T06:16:51.367Z,9.22
2022-10-23T06:17:24.288Z,9.26
2022-10-23T06:18:00.027Z,9.29
2022-10-23T06:18:32.803Z,9.31
2022-10-23T06:19:13.890Z,9.30
2022-10-23T06:19:47.422Z,9.33
2022-10-23T06:20:26.542Z,9.37
2022-10-23T06:21:10.493Z,9.35
2022-10-23T06:21:42.313Z,9.38
2022-10-23T06:22:17.610Z,9.45
2022-10-23T06:23:00.787Z,9.40
2022-10-23T06:23:57.711Z,9.34
2022-10-23T06:24:48.859Z,9.38
2022-10-23T06:25:26.330Z,9.41
2022-10-23T06:26:01.003Z,9.40
2022-10-23T06:26:55.714Z,9.40
2022-10-23T06:27:39.238Z,9.46
2022-10-23T06:28:11.074Z,9.49
2022-10-23T06:28:43.622Z,9.53
2022-10-23T06:29:16.587Z,9.56
2022-10-23T06:29:49.302Z,9.63
2022-10-23T06:30:21.263Z,9.55
2022-10-23T06:30:54.855Z,9.50
2022-10-23T06:31:28.227Z,9.56
2022-10-23T06:32:02.016Z,9.56
2022-10-23T06:32:34.563Z,9.59
2022-10-23T06:33:15.759Z,9.59
2022-10-23T06:33:47.776Z,9.64
2022-10-23T06:34:19.615Z,9.60
2022-10-23T06:34:52.357Z,9.59
2022-10-23T06:35:24.347Z,9.58
2022-10-23T06:35:56.995Z,9.64
2022-10-23T06:36:29.066Z,9.70
2022-10-23T06:37:11.635Z,9.66
2022-10-23T06:37:51.442Z,9.71
2022-10-23T06:38:37.173Z,9.78
2022-10-23T06:39:10.276Z,9.74
2022-10-23T06:40:01.823Z,9.73
2022-10-23T06:41:04.053Z,9.72
2022-10-23T06:41:42.116Z,9.66
2022-10-23T06:42:14.477Z,9.76
2022-10-23T06:43:15.354Z,9.72
2022-10-23T06:44:19.864Z,9.75
2022-10-23T06:44:57.378Z,9.84
2022-10-23T06:45:52.043Z,9.68
2022-10-23T06:46:47.216Z,9.72
2022-10-23T06:47:38.117Z,9.83
2022-10-23T06:48:28.739Z,9.88
2022-10-23T06:49:06.125Z,9.97
2022-10-23T06:49:44.276Z,10.02
2022-10-23T06:50:17.854Z,9.92
2022-10-23T06:50:50.461Z,9.88
2022-10-23T06:51:29.689Z,10.00
2022-10-23T06:52:02.097Z,10.01
2022-10-23T06:52:46.496Z,10.06
2022-10-23T06:53:21.011Z,10.12
2022-10-23T06:53:59.968Z,10.12
2022-10-23T06:54:52.058Z,10.14
2022-10-23T06:55:28.031Z,10.16
2022-10-23T06:56:01.941Z,10.29
2022-10-23T06:56:35.127Z,10.29
2022-10-23T06:57:10.048Z,10.00
2022-10-23T06:57:49.156Z,10.10
2022-10-23T06:58:21.101Z,10.21
2022-10-23T06:59:19.698Z,10.37
2022-10-23T06:59:54.634Z,10.45
2022-10-23T07:00:26.780Z,10.46
2022-10-23T07:01:03.719Z,10.46
2022-10-23T07:01:37.418Z,10.46
2022-10-23T07:02:10.808Z,10.39
2022-10-23T07:02:43.889Z,10.43
2022-10-23T07:03:15.945Z,10.56
2022-10-23T07:03:49.394Z,10.61
2022-10-23T07:04:26.508Z,10.63
2022-10-23T07:04:59.138Z,10.68
2022-10-23T07:05:33.024Z,10.63
2022-10-23T07:06:07.456Z,10.63
2022-10-23T07:06:41.965Z,10.52
2022-10-23T07:07:14.405Z,10.62
2022-10-23T07:07:54.126Z,10.66
2022-10-23T07:08:30.777Z,10.67
2022-10-23T07:09:03.200Z,10.78
2022-10-23T07:09:53.410Z,10.70
2022-10-23T07:10:43.045Z,10.67
2022-10-23T07:11:15.103Z,10.67
2022-10-23T07:11:48.124Z,10.64
2022-10-23T07:12:20.278Z,10.68
2022-10-23T07:13:00.803Z,10.80
2022-10-23T07:13:42.678Z,10.83
2022-10-23T07:14:19.347Z,10.92
2022-10-23T07:14:52.025Z,10.93
2022-10-23T07:15:24.528Z,10.82
2022-10-23T07:15:57.171Z,10.88
2022-10-23T07:16:31.956Z,10.96
2022-10-23T07:17:04.335Z,11.05
2022-10-23T07:17:36.315Z,11.06
2022-10-23T07:18:14.410Z,10.94
2022-10-23T07:19:06.823Z,10.94
2022-10-23T07:20:17.163Z,10.99
2022-10-23T07:20:51.412Z,11.11
2022-10-23T07:21:23.659Z,11.22
2022-10-23T07:21:58.566Z,11.16
2022-10-23T07:22:54.985Z,11.24
2022-10-23T07:23:33.709Z,11.30
2022-10-23T07:24:06.278Z,11.45
2022-10-23T07:24:41.481Z,11.44
2022-10-23T07:25:33.716Z,11.45
2022-10-23T07:26:17.018Z,11.54
2022-10-23T07:26:52.018Z,11.70
2022-10-23T07:27:25.195Z,11.54
2022-10-23T07:28:02.203Z,11.43
2022-10-23T07:28:36.649Z,11.45
2022-10-23T07:29:09.181Z,11.56
2022-10-23T07:29:42.059Z,11.67
2022-10-23T07:30:14.629Z,11.65
2022-10-23T07:31:00.608Z,11.52
2022-10-23T07:31:52.388Z,11.51
2022-10-23T07:32:44.295Z,11.70
2022-10-23T07:33:35.071Z,11.60
2022-10-23T07:34:14.756Z,11.71
2022-10-23T07:34:48.464Z,11.78
2022-10-23T07:35:32.992Z,11.97
2022-10-23T07:36:14.427Z,11.98
2022-10-23T07:36:46.563Z,12.09
2022-10-23T07:37:18.590Z,12.18
2022-10-23T07:37:51.351Z,12.15
2022-10-23T07:38:24.664Z,12.25
2022-10-23T07:38:59.458Z,12.13
2022-10-23T07:39:32.553Z,12.17
2022-10-23T07:40:06.793Z,11.98
2022-10-23T07:40:45.710Z,12.00
2022-10-23T07:41:21.272Z,11.81
2022-10-23T07:41:53.207Z,12.04
2022-10-23T07:42:25.254Z,12.11
2022-10-23T07:42:57.407Z,12.05
2022-10-23T07:44:02.281Z,12.23
2022-10-23T07:44:34.173Z,12.34
2022-10-23T07:45:07.575Z,12.24
2022-10-23T07:45:41.337Z,12.44
2022-10-23T07:46:25.614Z,12.49
2022-10-23T07:46:57.891Z,12.76
2022-10-23T07:47:32.533Z,12.75
2022-10-23T07:48:05.746Z,12.92
2022-10-23T07:48:54.272Z,12.89
2022-10-23T07:49:26.765Z,13.01
2022-10-23T07:49:59.215Z,13.13
2022-10-23T07:50:31.993Z,12.57
2022-10-23T07:51:11.301Z,12.25
2022-10-23T07:51:53.883Z,12.09
2022-10-23T07:52:26.221Z,11.94
2022-10-23T07:53:23.123Z,12.27
2022-10-23T07:53:58.834Z,12.61
2022-10-23T07:54:53.449Z,12.75
2022-10-23T07:55:26.053Z,12.82
2022-10-23T07:56:17.737Z,12.99
2022-10-23T07:57:11.961Z,13.05
2022-10-23T07:57:48.642Z,13.12
2022-10-23T07:58:32.464Z,13.21
2022-10-23T07:59:16.006Z,13.28
2022-10-23T07:59:54.596Z,13.12
2022-10-23T08:00:29.303Z,13.19
2022-10-23T08:01:35.499Z,13.13
2022-10-23T08:02:15.736Z,12.62
2022-10-23T08:02:48.890Z,12.89
2022-10-23T08:03:22.338Z,13.12
2022-10-23T08:03:54.615Z,13.36
2022-10-23T08:04:26.869Z,13.29
2022-10-23T08:05:06.292Z,13.23
2022-10-23T08:05:44.245Z,12.92
2022-10-23T08:06:16.069Z,12.82
2022-10-23T08:06:48.529Z,12.95
2022-10-23T08:07:20.981Z,13.15
2022-10-23T08:07:54.395Z,13.07
2022-10-23T08:08:27.584Z,13.06
2022-10-23T08:09:06.820Z,13.12
2022-10-23T08:09:42.755Z,13.29
2022-10-23T08:10:14.857Z,13.31
2022-10-23T08:10:50.963Z,13.51
2022-10-23T08:11:35.225Z,13.40
2022-10-23T08:12:09.376Z,13.41
2022-10-23T08:12:41.837Z,13.48
2022-10-23T08:13:14.299Z,13.51
2022-10-23T08:14:08.302Z,13.60
2022-10-23T08:14:40.590Z,13.54
2022-10-23T08:15:12.644Z,13.66